Time;durP1;ratioP1;P1;durP2;ratioP2;P2;SDS_P1;SDS_P2;PMS_P1;PMS_P2;Temp;Humidity;BMP_temperature;BMP_pressure;BME280_temperature;BME280_humidity;BME280_pressure;Samples;Min_cycle;Max_cycle;Signal;HPM_P1;HPM_P2
2022/09/18 00:02:25;;;;;;;1.97;1.47;;;10.10;97.30;;;;;;5011331;28;20417;-90
2022/09/18 00:04:54;;;;;;;1.10;1.00;;;10.00;97.30;;;;;;5011823;28;20479;-90
2022/09/18 00:07:19;;;;;;;0.90;0.90;;;10.10;97.30;;;;;;5009842;28;20421;-88
2022/09/18 00:09:45;;;;;;;1.20;1.10;;;10.10;97.30;;;;;;5025175;28;20441;-88
2022/09/18 00:12:11;;;;;;;1.07;0.97;;;10.10;97.30;;;;;;5021024;28;20178;-89
2022/09/18 00:14:39;;;;;;;1.00;0.90;;;10.10;97.30;;;;;;5027239;28;20212;-90
2022/09/18 00:17:04;;;;;;;1.40;1.30;;;10.10;97.30;;;;;;5023851;28;20686;-90
2022/09/18 00:19:30;;;;;;;1.00;0.90;;;10.10;97.30;;;;;;5007474;28;20443;-90
2022/09/18 00:21:55;;;;;;;1.10;1.00;;;10.10;97.30;;;;;;5021117;28;20177;-89
2022/09/18 00:24:22;;;;;;;1.20;1.10;;;10.10;97.30;;;;;;5023617;28;20229;-89
2022/09/18 00:26:48;;;;;;;1.00;0.90;;;10.10;97.30;;;;;;5024778;28;20702;-89
2022/09/18 00:29:14;;;;;;;1.10;1.00;;;10.10;97.30;;;;;;5025620;28;20420;-88
2022/09/18 00:31:41;;;;;;;1.23;1.13;;;10.10;97.30;;;;;;5013671;28;20196;-88
2022/09/18 00:34:13;;;;;;;1.00;0.90;;;10.10;97.30;;;;;;5033321;28;20424;-87
2022/09/18 00:36:40;;;;;;;1.03;0.93;;;10.10;97.30;;;;;;5011301;28;20456;-89
2022/09/18 00:39:06;;;;;;;2.40;2.00;;;10.20;97.30;;;;;;5008303;28;20428;-89
2022/09/18 00:41:35;;;;;;;1.87;1.77;;;10.10;97.30;;;;;;5012747;28;20419;-89
2022/09/18 00:44:41;;;;;;;1.73;1.63;;;10.10;97.30;;;;;;5008455;28;20491;-88
2022/09/18 00:47:20;;;;;;;1.00;0.90;;;10.10;97.30;;;;;;5009620;28;20431;-89
2022/09/18 00:49:51;;;;;;;1.10;1.00;;;10.10;97.30;;;;;;5004272;28;20420;-89
2022/09/18 00:52:24;;;;;;;1.10;1.00;;;10.10;97.30;;;;;;5007851;28;20408;-87
2022/09/18 00:54:59;;;;;;;1.57;1.40;;;10.10;97.30;;;;;;5004317;28;20515;-88
2022/09/18 00:57:29;;;;;;;1.03;0.93;;;10.10;97.30;;;;;;5003947;28;21009;-87
2022/09/18 00:59:55;;;;;;;3.47;1.37;;;10.10;97.30;;;;;;5002792;28;20412;-88
2022/09/18 01:08:15;;;;;;;1.20;1.10;;;10.10;97.30;;;;;;5016224;28;20479;-85
2022/09/18 01:11:15;;;;;;;1.00;0.90;;;10.20;97.30;;;;;;5019719;28;20915;-88
2022/09/18 01:14:04;;;;;;;1.20;1.10;;;10.20;97.30;;;;;;5026046;28;20451;-88
2022/09/18 01:17:00;;;;;;;1.13;1.03;;;10.20;97.30;;;;;;5039689;28;20420;-88
2022/09/18 01:20:04;;;;;;;1.10;1.00;;;10.20;97.30;;;;;;5023375;28;20424;-88
2022/09/18 01:23:02;;;;;;;1.10;1.00;;;10.20;97.30;;;;;;5019506;28;20423;-87
2022/09/18 01:25:58;;;;;;;2.50;1.20;;;10.20;97.30;;;;;;5017565;28;20466;-88
2022/09/18 01:28:52;;;;;;;1.10;1.00;;;10.20;97.30;;;;;;5019445;28;20427;-88
2022/09/18 01:31:51;;;;;;;1.30;1.20;;;10.20;97.30;;;;;;5020947;28;20415;-87
2022/09/18 01:34:27;;;;;;;1.10;1.00;;;10.30;97.30;;;;;;5018050;28;20514;-88
2022/09/18 01:37:01;;;;;;;1.27;1.20;;;10.30;97.30;;;;;;5017219;28;20824;-87
2022/09/18 01:39:33;;;;;;;1.00;0.90;;;10.30;97.30;;;;;;5016357;28;20422;-88
2022/09/18 01:42:01;;;;;;;2.50;2.30;;;10.30;97.30;;;;;;5016212;28;20446;-88
2022/09/18 01:44:31;;;;;;;1.00;0.90;;;10.30;97.30;;;;;;5028387;28;20544;-87
2022/09/18 01:46:59;;;;;;;1.33;1.30;;;10.30;97.30;;;;;;5031515;28;20438;-87
2022/09/18 01:49:28;;;;;;;1.13;1.07;;;10.30;97.30;;;;;;5036922;28;20415;-87
2022/09/18 01:52:13;;;;;;;1.00;0.90;;;10.30;97.30;;;;;;5035531;28;20419;-87
2022/09/18 01:54:42;;;;;;;1.00;0.90;;;10.30;97.30;;;;;;5033248;28;20550;-87
2022/09/18 01:57:22;;;;;;;1.00;0.90;;;10.30;97.30;;;;;;5029367;28;20475;-88
2022/09/18 01:59:55;;;;;;;2.20;1.57;;;10.30;97.30;;;;;;5026774;28;20419;-88
2022/09/18 02:02:31;;;;;;;1.00;0.90;;;10.30;97.30;;;;;;5020815;28;20427;-87
2022/09/18 02:05:01;;;;;;;1.20;1.20;;;10.20;97.30;;;;;;5022959;28;20553;-88
2022/09/18 02:07:36;;;;;;;1.30;1.20;;;10.20;97.30;;;;;;5020078;28;20478;-88
2022/09/18 02:10:03;;;;;;;1.20;1.10;;;10.20;97.30;;;;;;5019445;28;20430;-88
2022/09/18 02:12:36;;;;;;;1.33;1.23;;;10.10;97.30;;;;;;5020429;28;20422;-88
2022/09/18 02:15:09;;;;;;;1.00;0.90;;;10.10;97.30;;;;;;5024219;28;20419;-88
2022/09/18 02:17:49;;;;;;;1.20;1.10;;;10.10;97.30;;;;;;5027111;28;20423;-87
2022/09/18 02:20:19;;;;;;;1.20;1.10;;;10.10;97.30;;;;;;5028306;28;20513;-88
2022/09/18 02:22:50;;;;;;;5.13;1.47;;;10.10;97.30;;;;;;5046803;28;20494;-89
2022/09/18 02:25:24;;;;;;;3.50;1.27;;;10.10;97.30;;;;;;5026469;28;20431;-87
2022/09/18 02:27:53;;;;;;;1.00;0.90;;;10.10;97.30;;;;;;5025138;28;20437;-87
2022/09/18 02:30:19;;;;;;;1.20;1.10;;;10.10;97.30;;;;;;5027312;28;20407;-87
2022/09/18 02:32:45;;;;;;;1.27;1.17;;;10.10;97.30;;;;;;5043226;28;20647;-88
2022/09/18 02:35:14;;;;;;;1.10;1.00;;;10.10;97.30;;;;;;5056133;28;20265;-88
2022/09/18 02:37:54;;;;;;;0.90;0.80;;;10.10;97.30;;;;;;5020922;28;20506;-88
2022/09/18 02:40:37;;;;;;;2.70;1.53;;;10.10;97.30;;;;;;5021129;28;20422;-87
2022/09/18 02:43:29;;;;;;;1.30;1.20;;;10.10;97.30;;;;;;5039839;28;20451;-88
2022/09/18 02:46:25;;;;;;;1.40;1.40;;;10.10;97.30;;;;;;5021616;28;20423;-89
2022/09/18 02:48:59;;;;;;;1.40;1.30;;;10.00;97.30;;;;;;5041454;28;20415;-88
2022/09/18 02:51:45;;;;;;;2.27;1.60;;;10.00;97.30;;;;;;5020619;28;20509;-88
2022/09/18 02:54:18;;;;;;;1.00;1.00;;;10.00;97.30;;;;;;5018247;28;20457;-88
2022/09/18 02:56:53;;;;;;;1.63;1.53;;;10.00;97.30;;;;;;5018860;28;20506;-89
2022/09/18 02:59:30;;;;;;;1.10;1.00;;;10.00;97.30;;;;;;5018454;28;20428;-89
2022/09/18 03:01:57;;;;;;;1.07;0.97;;;10.00;97.30;;;;;;5033529;28;20438;-89
2022/09/18 03:04:25;;;;;;;1.37;1.20;;;10.00;97.30;;;;;;5018049;28;20470;-88
2022/09/18 03:06:54;;;;;;;1.20;1.10;;;10.00;97.30;;;;;;5031417;28;20458;-88
2022/09/18 03:09:21;;;;;;;1.20;1.10;;;10.00;97.30;;;;;;5053671;28;20407;-88
2022/09/18 03:11:46;;;;;;;1.30;1.23;;;10.00;97.30;;;;;;5036394;28;20418;-88
2022/09/18 03:14:12;;;;;;;1.10;1.00;;;10.00;97.30;;;;;;5035686;28;20442;-87
2022/09/18 03:16:37;;;;;;;1.20;1.10;;;9.90;97.30;;;;;;5035937;28;20242;-89
2022/09/18 03:19:03;;;;;;;1.20;1.10;;;10.00;97.30;;;;;;5038704;28;20518;-88
2022/09/18 03:21:29;;;;;;;1.20;1.10;;;10.00;97.30;;;;;;5035384;28;20206;-88
2022/09/18 03:23:54;;;;;;;1.23;1.13;;;10.00;97.30;;;;;;5052461;28;21053;-88
2022/09/18 03:26:20;;;;;;;10.73;1.33;;;9.90;97.30;;;;;;5036433;28;20176;-89
2022/09/18 03:28:46;;;;;;;1.00;0.90;;;9.90;97.30;;;;;;5053294;28;20182;-87
2022/09/18 03:31:12;;;;;;;1.10;1.00;;;10.00;97.30;;;;;;5053236;28;20406;-87
2022/09/18 03:33:37;;;;;;;1.20;1.10;;;10.00;97.30;;;;;;5052112;28;20211;-88
2022/09/18 03:36:04;;;;;;;1.20;1.10;;;10.00;97.30;;;;;;5053988;28;20301;-90
2022/09/18 03:38:30;;;;;;;1.20;1.10;;;9.90;97.30;;;;;;5035334;28;20554;-88
2022/09/18 03:40:59;;;;;;;1.10;1.00;;;9.90;97.30;;;;;;5035601;28;20434;-88
2022/09/18 03:43:25;;;;;;;1.10;1.00;;;9.90;97.30;;;;;;5053567;28;20454;-88
2022/09/18 03:45:51;;;;;;;1.60;1.50;;;9.90;97.30;;;;;;5035130;28;20429;-88
2022/09/18 03:48:17;;;;;;;1.10;1.00;;;9.80;97.30;;;;;;5035559;28;20660;-88
2022/09/18 03:50:43;;;;;;;1.30;1.20;;;9.80;97.30;;;;;;5035561;28;20943;-88
2022/09/18 03:53:08;;;;;;;1.20;1.10;;;9.80;97.30;;;;;;5053350;28;20596;-87
2022/09/18 03:55:35;;;;;;;1.10;1.00;;;9.70;97.30;;;;;;5035852;28;20541;-88
2022/09/18 03:58:00;;;;;;;2.00;1.20;;;9.70;97.30;;;;;;5035212;28;20175;-87
2022/09/18 04:00:26;;;;;;;1.10;1.00;;;9.60;97.30;;;;;;5035160;28;20827;-88
2022/09/18 04:02:52;;;;;;;1.40;1.20;;;9.60;97.30;;;;;;5034745;28;20196;-88
2022/09/18 04:05:17;;;;;;;1.30;1.20;;;9.60;97.30;;;;;;5051177;28;20591;-88
2022/09/18 04:07:43;;;;;;;2.80;1.20;;;9.60;97.30;;;;;;5034923;28;20212;-87
2022/09/18 04:10:08;;;;;;;1.47;1.43;;;9.50;97.30;;;;;;5034761;28;20176;-88
2022/09/18 04:12:34;;;;;;;1.20;1.10;;;9.50;97.30;;;;;;5034406;28;20184;-87
2022/09/18 04:14:59;;;;;;;1.10;1.00;;;9.50;97.30;;;;;;5034457;28;20262;-88
2022/09/18 04:17:25;;;;;;;1.07;0.97;;;9.50;97.30;;;;;;5034880;28;20250;-88
2022/09/18 04:19:51;;;;;;;2.60;1.10;;;9.50;97.30;;;;;;5034565;28;20271;-88
2022/09/18 04:22:17;;;;;;;5.23;1.23;;;9.50;97.30;;;;;;5034490;28;20308;-87
2022/09/18 04:24:43;;;;;;;1.40;1.30;;;9.40;97.30;;;;;;5036508;28;20212;-89
2022/09/18 04:27:09;;;;;;;1.30;1.20;;;9.40;97.30;;;;;;5067923;28;20168;-89
2022/09/18 04:29:34;;;;;;;5.07;3.00;;;9.50;97.30;;;;;;5052342;28;20402;-88
2022/09/18 04:32:00;;;;;;;1.07;0.97;;;9.50;97.30;;;;;;5033859;28;20180;-90
2022/09/18 04:34:25;;;;;;;4.87;1.10;;;9.50;97.30;;;;;;5033992;28;20273;-89
2022/09/18 04:36:50;;;;;;;1.10;1.00;;;9.50;97.30;;;;;;5067278;28;20238;-89
2022/09/18 04:39:16;;;;;;;0.93;0.83;;;9.50;97.30;;;;;;5036321;28;20618;-90
2022/09/18 04:41:44;;;;;;;1.53;1.43;;;9.50;97.30;;;;;;5034194;28;20184;-90
2022/09/18 04:44:09;;;;;;;1.40;1.00;;;9.50;97.30;;;;;;5046831;28;20202;-90
2022/09/18 04:46:35;;;;;;;1.17;1.10;;;9.40;97.30;;;;;;5057329;28;20414;-89
2022/09/18 04:49:00;;;;;;;1.00;0.90;;;9.40;97.30;;;;;;5056460;28;20646;-90
2022/09/18 04:51:26;;;;;;;2.00;1.87;;;9.40;97.30;;;;;;5046100;28;20174;-89
2022/09/18 04:53:51;;;;;;;2.40;1.53;;;9.30;97.30;;;;;;5044310;28;20191;-90
2022/09/18 04:56:17;;;;;;;1.10;1.00;;;9.30;97.30;;;;;;5034905;28;20216;-88
2022/09/18 04:58:42;;;;;;;1.20;1.10;;;9.30;97.30;;;;;;5043684;28;20164;-90
2022/09/18 05:01:08;;;;;;;1.57;1.47;;;9.30;97.30;;;;;;5044133;28;20183;-90
2022/09/18 05:03:34;;;;;;;1.10;1.00;;;9.30;97.30;;;;;;5052583;28;20821;-89
2022/09/18 05:05:59;;;;;;;1.83;1.10;;;9.30;97.30;;;;;;5034341;28;20222;-91
2022/09/18 05:08:28;;;;;;;1.40;1.30;;;9.40;97.30;;;;;;5046573;28;20503;-89
2022/09/18 05:10:53;;;;;;;1.30;1.20;;;9.40;97.30;;;;;;5056327;28;20259;-90
2022/09/18 05:13:19;;;;;;;1.10;1.00;;;9.40;97.30;;;;;;5043095;28;20469;-90
2022/09/18 05:15:44;;;;;;;1.23;1.20;;;9.40;97.30;;;;;;5058029;28;20168;-90
2022/09/18 05:18:11;;;;;;;1.20;1.10;;;9.40;97.30;;;;;;5033851;28;20567;-89
2022/09/18 05:20:37;;;;;;;1.90;1.77;;;9.40;97.30;;;;;;5050023;28;20242;-91
2022/09/18 05:23:03;;;;;;;1.20;1.10;;;9.50;97.30;;;;;;5041608;28;20441;-89
2022/09/18 05:25:29;;;;;;;1.10;1.00;;;9.50;97.30;;;;;;5042229;28;20426;-89
2022/09/18 05:28:00;;;;;;;6.10;1.73;;;9.50;97.30;;;;;;5039694;28;20665;-88
2022/09/18 05:30:34;;;;;;;1.10;1.00;;;9.50;97.30;;;;;;5043573;28;20924;-87
2022/09/18 05:33:08;;;;;;;1.20;1.10;;;9.50;97.30;;;;;;5041336;28;20442;-89
2022/09/18 05:35:35;;;;;;;1.20;1.10;;;9.50;97.30;;;;;;5029296;28;20424;-88
2022/09/18 05:38:06;;;;;;;1.27;1.00;;;9.60;97.30;;;;;;5031607;28;20418;-88
2022/09/18 05:40:34;;;;;;;1.90;1.63;;;9.60;97.30;;;;;;5047026;28;20419;-89
2022/09/18 05:43:01;;;;;;;1.10;1.00;;;9.60;97.30;;;;;;5031090;28;20461;-90
2022/09/18 05:45:28;;;;;;;1.10;1.00;;;9.60;97.30;;;;;;5030150;28;20415;-90
2022/09/18 05:47:55;;;;;;;1.00;0.90;;;9.60;97.30;;;;;;5032127;28;20410;-90
2022/09/18 05:50:24;;;;;;;1.00;0.90;;;9.60;97.30;;;;;;5030562;28;20430;-91
2022/09/18 05:53:28;;;;;;;1.83;1.40;;;9.60;97.30;;;;;;5052398;28;20456;-90
2022/09/18 05:55:54;;;;;;;1.80;1.70;;;9.70;97.30;;;;;;4944808;29;20437;-92
2022/09/18 05:58:20;;;;;;;1.20;1.10;;;9.70;97.30;;;;;;5012676;28;20422;-90
2022/09/18 06:00:46;;;;;;;1.30;1.20;;;9.70;97.30;;;;;;5031032;28;20188;-89
2022/09/18 06:03:13;;;;;;;1.00;0.90;;;9.70;97.30;;;;;;5031226;28;20442;-90
2022/09/18 06:05:39;;;;;;;1.07;0.97;;;9.80;97.30;;;;;;5031423;28;20467;-92
2022/09/18 06:08:08;;;;;;;1.70;1.43;;;9.80;97.30;;;;;;5031828;28;20426;-90
2022/09/18 06:10:38;;;;;;;1.10;1.00;;;9.80;97.30;;;;;;5032554;28;21092;-90
2022/09/18 06:13:09;;;;;;;1.73;1.37;;;9.90;97.30;;;;;;5031797;28;20492;-91
2022/09/18 06:15:35;;;;;;;1.50;1.40;;;9.90;97.30;;;;;;5032922;28;20414;-90
2022/09/18 06:18:02;;;;;;;0.80;0.80;;;9.90;97.30;;;;;;5032502;28;20423;-89
2022/09/18 06:20:27;;;;;;;1.10;1.00;;;10.00;97.30;;;;;;5049931;28;20418;-90
2022/09/18 06:22:53;;;;;;;1.10;1.00;;;10.00;97.30;;;;;;5049504;28;20941;-89
2022/09/18 06:25:20;;;;;;;1.40;1.30;;;10.00;97.30;;;;;;5049892;28;20256;-87
2022/09/18 06:27:47;;;;;;;1.10;1.00;;;10.00;97.30;;;;;;5049438;28;20172;-90
2022/09/18 06:30:15;;;;;;;1.20;1.10;;;10.00;97.30;;;;;;5051154;28;20464;-89
2022/09/18 06:32:40;;;;;;;1.10;1.00;;;10.10;97.30;;;;;;5031394;28;20422;-91
2022/09/18 06:35:06;;;;;;;1.03;0.93;;;10.10;97.30;;;;;;5031549;28;20417;-89
2022/09/18 06:37:32;;;;;;;1.00;1.00;;;10.20;97.30;;;;;;5047652;28;20650;-90
2022/09/18 06:39:57;;;;;;;1.20;1.10;;;10.20;97.30;;;;;;5028333;28;20418;-90
2022/09/18 06:42:23;;;;;;;0.97;0.90;;;10.30;97.30;;;;;;5029916;28;20781;-93
2022/09/18 06:44:48;;;;;;;0.90;0.80;;;10.30;97.30;;;;;;5037879;28;20207;-89
2022/09/18 06:47:14;;;;;;;1.30;1.00;;;10.40;97.30;;;;;;5038228;28;20242;-90
2022/09/18 06:49:40;;;;;;;2.50;1.20;;;10.50;97.30;;;;;;5042208;28;20229;-89
2022/09/18 06:52:06;;;;;;;2.70;2.50;;;10.50;97.30;;;;;;5030286;28;20814;-90
2022/09/18 06:54:31;;;;;;;1.00;0.90;;;10.50;97.30;;;;;;5035046;28;20453;-91
2022/09/18 06:56:57;;;;;;;1.10;1.00;;;10.50;97.30;;;;;;5042548;28;20171;-89
2022/09/18 06:59:22;;;;;;;3.20;3.00;;;10.60;97.30;;;;;;5044152;28;20647;-90
2022/09/18 07:01:48;;;;;;;5.60;1.20;;;10.70;97.30;;;;;;5059902;28;20394;-90
2022/09/18 07:04:14;;;;;;;1.00;0.90;;;10.80;97.30;;;;;;5057675;28;20256;-90
2022/09/18 07:06:42;;;;;;;1.20;1.10;;;10.90;97.30;;;;;;5049041;28;20742;-91
2022/09/18 07:09:08;;;;;;;1.20;1.10;;;10.90;97.30;;;;;;5035788;28;20484;-90
2022/09/18 07:11:35;;;;;;;1.10;1.00;;;10.90;97.30;;;;;;5032785;28;21000;-90
2022/09/18 07:14:00;;;;;;;1.00;0.90;;;10.90;97.30;;;;;;5053734;28;20227;-90
2022/09/18 07:16:26;;;;;;;1.30;1.20;;;11.00;97.30;;;;;;5036075;28;20456;-90
2022/09/18 07:18:52;;;;;;;14.00;3.80;;;11.00;97.30;;;;;;5053019;28;20426;-90
2022/09/18 07:21:18;;;;;;;1.00;0.90;;;11.10;97.30;;;;;;5061321;28;20184;-90
2022/09/18 07:23:43;;;;;;;9.47;1.17;;;11.10;97.30;;;;;;5044390;28;20464;-89
2022/09/18 07:26:09;;;;;;;1.13;1.03;;;11.00;97.30;;;;;;5042276;28;20180;-90
2022/09/18 07:28:34;;;;;;;1.50;0.90;;;11.00;97.30;;;;;;5040566;28;20321;-90
2022/09/18 07:31:04;;;;;;;1.30;1.20;;;11.10;97.30;;;;;;5055193;28;20747;-91
2022/09/18 07:33:29;;;;;;;1.00;0.93;;;11.10;97.30;;;;;;5054794;28;20200;-90
2022/09/18 07:35:59;;;;;;;0.80;0.80;;;11.20;97.30;;;;;;5060412;28;20430;-88
2022/09/18 07:38:24;;;;;;;5.27;1.30;;;11.20;97.30;;;;;;5036651;28;20180;-90
2022/09/18 07:40:50;;;;;;;1.23;1.13;;;11.20;97.30;;;;;;5036762;28;20421;-90
2022/09/18 07:43:15;;;;;;;1.20;1.10;;;11.30;97.30;;;;;;5041102;28;20196;-89
2022/09/18 07:45:43;;;;;;;1.10;1.00;;;11.30;97.30;;;;;;5041358;28;20329;-90
2022/09/18 07:48:08;;;;;;;2.17;1.37;;;11.30;97.30;;;;;;5059298;28;20172;-89
2022/09/18 07:50:34;;;;;;;1.20;1.10;;;11.40;97.30;;;;;;5043994;28;20452;-90
2022/09/18 07:53:04;;;;;;;2.10;1.30;;;11.60;97.30;;;;;;5041182;28;20330;-90
2022/09/18 07:55:30;;;;;;;1.03;0.93;;;11.70;97.30;;;;;;5038833;28;20633;-90
2022/09/18 07:57:58;;;;;;;0.93;0.87;;;11.80;97.30;;;;;;5049109;28;20419;-90
2022/09/18 08:00:25;;;;;;;2.40;1.03;;;11.90;97.30;;;;;;5023845;28;20439;-90
2022/09/18 08:03:01;;;;;;;1.30;1.20;;;11.90;97.30;;;;;;5025587;28;20594;-90
2022/09/18 08:05:26;;;;;;;7.93;1.43;;;12.00;97.30;;;;;;5030612;28;20493;-90
2022/09/18 08:07:52;;;;;;;1.00;0.90;;;12.00;97.30;;;;;;5035563;28;20433;-89
2022/09/18 08:10:17;;;;;;;1.57;1.47;;;12.00;97.30;;;;;;5034455;28;20199;-92
2022/09/18 08:12:43;;;;;;;1.10;1.00;;;12.00;97.30;;;;;;5037447;28;20172;-89
2022/09/18 08:15:09;;;;;;;1.43;1.37;;;12.00;97.30;;;;;;5040626;28;20644;-90
2022/09/18 08:17:34;;;;;;;1.10;1.00;;;12.00;97.30;;;;;;5042880;28;20206;-91
2022/09/18 08:20:00;;;;;;;1.13;1.07;;;12.00;97.30;;;;;;5037899;28;20489;-89
2022/09/18 08:22:26;;;;;;;1.00;0.90;;;12.10;97.30;;;;;;5060059;28;20194;-90
2022/09/18 08:24:51;;;;;;;1.43;1.10;;;12.20;97.30;;;;;;5062731;28;20454;-91
2022/09/18 08:27:17;;;;;;;1.23;1.13;;;12.30;97.30;;;;;;5061809;28;20697;-90
2022/09/18 08:29:42;;;;;;;1.30;1.20;;;12.40;97.30;;;;;;5042697;28;20183;-89
2022/09/18 08:32:08;;;;;;;1.30;1.30;;;12.40;97.30;;;;;;5037293;28;20180;-90
2022/09/18 08:34:33;;;;;;;1.40;1.23;;;12.50;97.30;;;;;;5057834;28;20202;-89
2022/09/18 08:36:59;;;;;;;2.13;1.40;;;12.60;97.30;;;;;;5038279;28;20187;-90
2022/09/18 08:39:24;;;;;;;1.00;0.90;;;12.70;97.30;;;;;;5043575;28;20341;-92
2022/09/18 08:42:06;;;;;;;6.33;1.43;;;12.80;97.30;;;;;;5034743;28;20195;-87
2022/09/18 08:44:48;;;;;;;1.00;0.90;;;12.90;97.30;;;;;;5059839;28;20208;-91
2022/09/18 08:47:20;;;;;;;1.13;1.03;;;13.00;97.30;;;;;;5048285;28;20429;-92
2022/09/18 08:49:51;;;;;;;1.40;1.20;;;13.10;97.30;;;;;;5035701;28;20484;-90
2022/09/18 08:52:21;;;;;;;1.00;0.90;;;13.00;97.30;;;;;;5037656;28;20465;-90
2022/09/18 08:55:01;;;;;;;1.60;1.60;;;13.00;97.30;;;;;;5056404;28;20442;-89
2022/09/18 08:57:44;;;;;;;7.23;2.87;;;13.00;97.30;;;;;;5058305;28;20413;-92
2022/09/18 09:00:27;;;;;;;1.17;1.07;;;13.10;97.30;;;;;;5056601;28;20801;-87
2022/09/18 09:03:04;;;;;;;0.90;0.90;;;13.20;97.30;;;;;;5033473;28;20450;-90
2022/09/18 09:05:43;;;;;;;1.00;0.90;;;13.20;97.30;;;;;;5049842;28;20465;-90
2022/09/18 09:08:45;;;;;;;2.23;1.53;;;13.10;97.30;;;;;;5033416;28;20931;-91
2022/09/18 09:11:15;;;;;;;1.07;0.97;;;13.10;97.30;;;;;;5031137;28;20422;-91
2022/09/18 09:14:07;;;;;;;1.70;1.10;;;13.10;97.30;;;;;;5046164;28;20442;-91
2022/09/18 09:16:44;;;;;;;3.90;1.97;;;13.20;97.30;;;;;;5012031;28;20546;-92
2022/09/18 09:19:33;;;;;;;3.73;1.00;;;13.20;97.30;;;;;;5034518;28;20422;-91
2022/09/18 09:22:09;;;;;;;1.10;1.00;;;13.20;97.30;;;;;;5036661;28;20422;-91
2022/09/18 09:25:05;;;;;;;1.10;1.00;;;13.20;97.30;;;;;;5034669;28;20469;-90
2022/09/18 09:27:48;;;;;;;1.00;0.90;;;13.20;97.30;;;;;;5038586;28;20467;-90
2022/09/18 09:30:17;;;;;;;1.33;1.23;;;13.20;97.30;;;;;;5054502;28;20523;-87
2022/09/18 09:33:18;;;;;;;2.00;1.10;;;13.20;97.30;;;;;;5034116;28;20545;-91
2022/09/18 09:35:49;;;;;;;1.10;1.00;;;13.10;97.30;;;;;;5031604;28;20472;-93
2022/09/18 09:38:48;;;;;;;1.10;1.00;;;13.30;96.90;;;;;;5036701;28;20414;-91
2022/09/18 09:41:33;;;;;;;3.90;0.90;;;13.50;96.70;;;;;;4993066;28;20787;-91
2022/09/18 09:44:22;;;;;;;1.10;1.00;;;13.60;96.20;;;;;;5022950;28;20458;-91
2022/09/18 09:47:02;;;;;;;1.10;1.00;;;13.80;96.40;;;;;;5036493;28;21152;-91
2022/09/18 09:49:36;;;;;;;1.57;0.93;;;13.80;95.00;;;;;;5051490;28;20493;-89
2022/09/18 09:52:18;;;;;;;1.20;1.10;;;14.00;94.70;;;;;;5057258;28;20992;-89
2022/09/18 09:55:12;;;;;;;2.30;1.83;;;14.10;95.30;;;;;;5054682;28;21031;-88
2022/09/18 09:58:13;;;;;;;6.83;2.90;;;14.20;94.50;;;;;;5042347;28;20750;-89
2022/09/18 10:01:05;;;;;;;1.47;1.43;;;14.20;93.30;;;;;;4998402;28;20415;-89
2022/09/18 10:03:55;;;;;;;0.87;0.83;;;14.20;94.10;;;;;;5053471;28;20469;-91
2022/09/18 10:06:27;;;;;;;0.87;0.83;;;14.20;93.90;;;;;;5058150;28;20695;-89
2022/09/18 10:09:02;;;;;;;1.30;1.23;;;14.20;92.70;;;;;;5053645;28;20913;-90
2022/09/18 10:11:29;;;;;;;1.10;1.00;;;14.30;93.20;;;;;;5061994;28;20463;-93
2022/09/18 10:14:16;;;;;;;1.00;0.90;;;14.50;93.00;;;;;;5058855;28;20448;-90
2022/09/18 10:16:46;;;;;;;1.63;1.00;;;14.60;93.00;;;;;;5057797;28;20418;-90
2022/09/18 10:19:18;;;;;;;1.20;1.07;;;14.50;93.00;;;;;;5062187;28;20434;-89
2022/09/18 10:21:44;;;;;;;1.93;0.80;;;14.40;92.80;;;;;;5047442;28;20421;-90
2022/09/18 10:24:28;;;;;;;0.80;0.80;;;14.30;93.70;;;;;;5054133;28;20489;-90
2022/09/18 10:27:01;;;;;;;1.27;1.00;;;14.30;93.50;;;;;;5035977;23;20482;-90
2022/09/18 10:29:26;;;;;;;1.00;0.90;;;14.30;93.60;;;;;;5017309;28;20419;-91
2022/09/18 10:31:58;;;;;;;0.93;0.83;;;14.30;94.00;;;;;;5019247;28;20411;-90
2022/09/18 10:34:42;;;;;;;1.00;0.90;;;14.40;94.70;;;;;;5035473;28;20165;-90
2022/09/18 10:37:27;;;;;;;1.53;1.10;;;14.60;95.20;;;;;;5044786;28;20564;-90
2022/09/18 10:39:56;;;;;;;1.47;1.20;;;14.70;93.80;;;;;;5034127;28;20421;-89
2022/09/18 10:42:24;;;;;;;1.00;0.90;;;14.80;93.10;;;;;;5036217;28;20406;-91
2022/09/18 10:44:52;;;;;;;1.00;0.90;;;14.90;93.40;;;;;;5037478;28;20968;-92
2022/09/18 10:47:27;;;;;;;1.00;0.90;;;15.00;93.50;;;;;;5036019;28;20434;-91
2022/09/18 10:49:55;;;;;;;1.40;1.30;;;15.10;93.60;;;;;;5041465;28;20467;-91
2022/09/18 10:53:00;;;;;;;0.83;0.80;;;15.20;92.70;;;;;;5057906;28;20422;-89
2022/09/18 10:55:31;;;;;;;1.00;0.90;;;15.30;92.80;;;;;;5001318;28;20990;-88
2022/09/18 10:58:21;;;;;;;;;;;;;;;;;;;;;
2022/09/18 11:01:09;;;;;;;0.80;0.80;;;15.40;92.80;;;;;;5011362;28;20963;-90
2022/09/18 11:06:41;;;;;;;0.87;0.80;;;15.20;92.40;;;;;;5055816;28;20445;-91
2022/09/18 11:09:10;;;;;;;2.47;1.43;;;15.10;91.00;;;;;;5077588;28;20599;-93
2022/09/18 11:12:00;;;;;;;;;;;;;;;;;;;;;
2022/09/18 11:14:52;;;;;;;;;;;;;;;;;;;;;
2022/09/18 11:36:30;;;;;;;1.00;0.90;;;14.70;95.70;;;;;;4997249;28;20894;-91
2022/09/18 11:39:00;;;;;;;1.10;1.00;;;14.50;96.20;;;;;;4982481;28;20421;-91
2022/09/18 11:41:51;;;;;;;1.10;1.00;;;14.30;96.90;;;;;;4980249;28;20421;-92
2022/09/18 11:45:02;;;;;;;1.53;1.53;;;14.20;97.30;;;;;;4982728;28;20457;-90
2022/09/18 11:48:20;;;;;;;1.20;1.10;;;14.20;97.30;;;;;;4981888;28;20485;-92
2022/09/18 11:50:47;;;;;;;0.70;0.70;;;14.20;97.30;;;;;;4993807;28;20452;-92
2022/09/18 11:53:31;;;;;;;0.80;0.80;;;14.20;97.10;;;;;;5002036;28;20417;-93
2022/09/18 11:56:20;;;;;;;1.33;1.23;;;14.10;97.30;;;;;;4982306;28;20541;-91
2022/09/18 11:58:57;;;;;;;1.93;1.20;;;14.10;97.30;;;;;;4980639;28;20432;-90
2022/09/18 12:01:39;;;;;;;0.90;0.90;;;14.10;97.30;;;;;;4980186;28;20511;-91
2022/09/18 12:04:38;;;;;;;44.30;1.63;;;14.00;97.30;;;;;;4980521;28;20461;-93
2022/09/18 12:21:50;;;;;;;0.70;0.70;;;14.70;94.70;;;;;;4950395;29;20479;-90
2022/09/18 12:24:21;;;;;;;0.90;0.80;;;14.50;95.90;;;;;;4941314;29;20470;-92
2022/09/18 12:27:00;;;;;;;1.10;1.00;;;14.30;96.30;;;;;;4941897;29;20510;-91
2022/09/18 12:29:42;;;;;;;1.00;0.90;;;14.10;96.70;;;;;;4961564;28;20451;-91
2022/09/18 12:32:51;;;;;;;5.33;1.50;;;14.00;97.20;;;;;;5000439;28;20823;-91
2022/09/18 12:39:10;;;;;;;1.00;0.90;;;13.90;97.30;;;;;;5018118;28;20415;-91
2022/09/18 12:42:01;;;;;;;1.00;0.90;;;13.80;97.30;;;;;;5016549;28;20417;-90
2022/09/18 12:45:00;;;;;;;1.10;1.00;;;13.70;97.30;;;;;;5016979;28;20888;-90
2022/09/18 12:47:40;;;;;;;1.00;0.90;;;13.60;97.30;;;;;;4999958;28;20431;-91
2022/09/18 12:50:27;;;;;;;0.90;0.80;;;13.50;97.30;;;;;;5016996;28;20416;-91
2022/09/18 12:53:07;;;;;;;1.93;1.30;;;13.40;96.90;;;;;;4998908;28;20827;-91
2022/09/18 12:56:09;;;;;;;1.03;1.00;;;13.40;97.20;;;;;;4999308;28;20436;-91
2022/09/18 12:59:01;;;;;;;1.00;0.90;;;13.30;97.30;;;;;;5015136;28;20506;-91
2022/09/18 13:01:42;;;;;;;0.80;0.73;;;13.10;97.30;;;;;;5015957;28;20783;-91
2022/09/18 13:04:30;;;;;;;0.90;0.87;;;13.00;97.30;;;;;;4994419;28;20475;-91
2022/09/18 13:07:10;;;;;;;4.00;2.43;;;12.80;97.30;;;;;;4995883;28;20458;-93
2022/09/18 13:10:02;;;;;;;9.30;1.43;;;12.60;97.30;;;;;;5024731;28;20437;-92
2022/09/18 13:12:40;;;;;;;1.07;0.97;;;12.40;97.30;;;;;;5021581;28;20436;-94
2022/09/18 13:15:28;;;;;;;0.90;0.83;;;12.10;97.30;;;;;;5006943;28;20432;-94
2022/09/18 13:18:40;;;;;;;1.20;1.10;;;11.90;97.30;;;;;;4999855;28;20416;-94
2022/09/18 13:21:26;;;;;;;;;;;;;;;;;;;;;
2022/09/18 13:24:19;;;;;;;0.80;0.80;;;11.60;97.30;;;;;;4932993;29;20562;-94
2022/09/18 13:26:49;;;;;;;1.10;1.00;;;11.50;97.30;;;;;;4937211;29;20480;-92
2022/09/18 13:30:20;;;;;;;0.80;0.80;;;11.40;97.30;;;;;;4925830;29;20424;-93
2022/09/18 13:32:48;;;;;;;1.13;1.03;;;11.40;97.30;;;;;;4925990;29;20404;-92
2022/09/18 13:35:29;;;;;;;1.10;1.00;;;11.30;97.30;;;;;;4949029;29;20428;-92
2022/09/18 13:41:20;;;;;;;1.00;0.90;;;11.30;97.30;;;;;;4987087;28;20569;-93
2022/09/18 13:44:02;;;;;;;1.20;1.20;;;11.30;97.30;;;;;;4997822;28;20530;-92
2022/09/18 13:46:39;;;;;;;1.53;1.47;;;11.30;97.30;;;;;;5008727;28;21040;-92
2022/09/18 13:49:29;;;;;;;1.00;0.90;;;11.30;97.30;;;;;;5004587;28;20415;-93
2022/09/18 13:53:01;;;;;;;6.53;1.37;;;11.30;97.30;;;;;;5003407;28;20412;-92
2022/09/18 13:55:59;;;;;;;1.10;1.07;;;11.30;97.30;;;;;;5001255;28;20439;-92
2022/09/18 13:58:31;;;;;;;1.33;1.20;;;11.30;97.30;;;;;;5002844;28;20854;-92
2022/09/18 14:01:01;;;;;;;1.70;1.60;;;11.30;97.30;;;;;;5018434;28;20798;-92
2022/09/18 14:03:39;;;;;;;9.13;1.60;;;11.40;97.30;;;;;;5001682;28;20463;-93
2022/09/18 14:13:51;;;;;;;1.20;1.10;;;11.60;97.30;;;;;;4876067;29;20434;-92
2022/09/18 14:20:00;;;;;;;1.47;1.30;;;11.60;97.30;;;;;;4927291;29;20428;-93
2022/09/18 14:22:40;;;;;;;1.27;1.17;;;11.60;97.30;;;;;;4886606;29;20427;-93
2022/09/18 14:25:49;;;;;;;1.40;1.30;;;11.60;97.30;;;;;;4960585;29;20466;-93
2022/09/18 14:28:21;;;;;;;1.20;1.10;;;11.60;97.30;;;;;;4944167;29;20425;-93
2022/09/18 14:31:50;;;;;;;1.00;0.90;;;11.60;97.30;;;;;;5009388;28;20476;-90